Terminal Aerodrome Forecast
Issued by NWS

Home | Current Version | Previous Version | Text Only | Print | Product List | Glossary On
Versions: 1 2 3 4 5 6 7 8 9 10 11 12 13 14 15 16 17 18 19 20 21
737
FTUS43 KPAH 211722
TAFCGI
TAF
KCGI 211722Z 2118/2218 11010KT P6SM BKN250
     FM220000 09008KT P6SM BKN100
     FM220400 08010KT P6SM VCSH SCT030 BKN050 PROB30 2206/2212 5SM
      -SHRA BKN025
     FM221200 08013KT 6SM -SHRA SCT010 OVC015=

USA.gov is the U.S. government's official web portal to all federal, state and local government web resources and services.